Time;durP1;ratioP1;P1;durP2;ratioP2;P2;SDS_P1;SDS_P2;PMS_P1;PMS_P2;Temp;Humidity;BMP_temperature;BMP_pressure;BME280_temperature;BME280_humidity;BME280_pressure;Samples;Min_cycle;Max_cycle;Signal;HPM_P1;HPM_P2
2024/01/28 00:01:40;;;;;;;184.43;7.70;;;;;;;20.20;49.06;101379.03;7295926;19;132126;-38
2024/01/28 00:04:06;;;;;;;;;;;;;;;20.22;50.35;101375.44;7297580;19;130959;-38
2024/01/28 00:06:31;;;;;;;199.63;7.95;;;;;;;20.22;48.44;101375.44;7297513;19;129587;-38
2024/01/28 00:08:56;;;;;;;251.50;10.70;;;;;;;20.15;50.16;101374.09;7296065;19;129628;-39
2024/01/28 00:11:22;;;;;;;198.27;8.30;;;;;;;20.03;50.27;101373.91;7296120;19;131210;-38
2024/01/28 00:13:47;;;;;;;192.90;7.65;;;;;;;19.93;50.02;101370.16;7297597;19;131429;-38
2024/01/28 00:16:16;;;;;;;204.18;8.15;;;;;;;19.82;50.32;101354.22;7296482;19;129731;-37
2024/01/28 00:18:42;;;;;;;164.98;6.57;;;;;;;19.63;50.52;101327.47;7296446;19;129612;-37
2024/01/28 00:21:07;;;;;;;109.55;4.50;;;;;;;19.77;50.72;101353.63;7294731;19;129905;-38
2024/01/28 00:23:33;;;;;;;223.40;8.80;;;;;;;19.75;51.13;101358.13;7293387;19;131309;-38
2024/01/28 00:25:59;;;;;;;212.40;8.60;;;;;;;19.73;51.02;101352.13;7298013;19;132156;-37
2024/01/28 00:28:24;;;;;;;190.52;7.93;;;;;;;19.55;50.99;101325.31;7296658;19;129117;-39
2024/01/28 00:30:49;;;;;;;195.00;7.72;;;;;;;19.68;51.28;101348.94;7294310;19;129780;-38
2024/01/28 00:33:15;;;;;;;208.25;7.88;;;;;;;19.67;51.22;101349.88;7293634;19;131736;-38
2024/01/28 00:35:40;;;;;;;178.80;6.95;;;;;;;19.67;51.50;101355.09;7298705;19;130894;-40
2024/01/28 00:38:05;;;;;;;179.45;7.13;;;;;;;19.68;51.38;101355.00;7296280;19;130197;-36
2024/01/28 00:40:31;;;;;;;172.20;7.03;;;;;;;19.67;51.07;101358.53;7295384;19;129061;-36
2024/01/28 00:42:57;;;;;;;248.25;9.60;;;;;;;19.71;51.86;101351.38;7294888;19;130017;-38
2024/01/28 00:45:22;;;;;;;190.77;7.60;;;;;;;19.83;50.77;101358.53;7294965;19;131317;-38
2024/01/28 00:47:49;;;;;;;185.93;7.63;;;;;;;19.88;51.53;101351.28;7297431;19;131021;-38
2024/01/28 00:50:14;;;;;;;207.93;8.40;;;;;;;19.96;50.36;101346.47;7295277;19;130359;-36
2024/01/28 00:52:40;;;;;;;161.90;6.32;;;;;;;20.02;50.25;101348.72;7294989;19;132109;-38
2024/01/28 00:55:06;;;;;;;159.98;6.38;;;;;;;20.03;50.05;101355.66;7294373;19;130374;-38
2024/01/28 00:57:31;;;;;;;202.37;8.40;;;;;;;20.08;49.44;101356.22;7295161;19;129321;-38
2024/01/28 00:59:56;;;;;;;216.15;8.60;;;;;;;20.10;49.39;101357.81;7296012;19;129246;-39
2024/01/28 01:02:22;;;;;;;231.23;9.43;;;;;;;20.17;48.69;101360.94;7294297;19;131182;-37
2024/01/28 01:04:47;;;;;;;170.07;7.00;;;;;;;20.17;49.24;101366.16;7296780;19;130894;-38
2024/01/28 01:07:12;;;;;;;169.88;6.65;;;;;;;20.16;48.88;101354.06;7295109;19;131506;-37
2024/01/28 01:09:38;;;;;;;125.93;4.95;;;;;;;20.20;48.81;101360.75;7293972;19;129759;-38
2024/01/28 01:12:04;;;;;;;186.98;7.40;;;;;;;20.21;48.46;101367.69;7294754;19;129766;-38
2024/01/28 01:14:35;;;;;;;207.13;8.57;;;;;;;20.18;48.62;101358.25;7294357;19;133499;-37
2024/01/28 01:17:03;;;;;;;176.40;6.95;;;;;;;20.18;49.28;101357.41;7296954;19;130634;-38
2024/01/28 01:19:29;;;;;;;246.82;9.93;;;;;;;20.02;49.76;101348.72;7294092;19;130781;-36
2024/01/28 01:21:56;;;;;;;182.07;7.25;;;;;;;19.88;50.52;101359.13;7292894;19;133585;-38
2024/01/28 01:24:22;;;;;;;95.18;4.07;;;;;;;19.62;50.84;101325.81;7295031;19;131610;-37
2024/01/28 01:26:47;;;;;;;180.05;7.53;;;;;;;19.74;50.95;101351.19;7294711;19;129444;-37
2024/01/28 01:29:12;;;;;;;142.77;5.55;;;;;;;19.73;51.38;101354.75;7295572;19;129787;-38
2024/01/28 01:31:38;;;;;;;203.10;8.07;;;;;;;19.71;51.39;101361.81;7291093;19;129602;-38
2024/01/28 01:34:04;;;;;;;162.80;6.57;;;;;;;19.68;51.06;101359.38;7294252;19;130513;-38
2024/01/28 01:36:29;;;;;;;159.05;6.43;;;;;;;19.68;51.36;101356.75;7295697;19;129788;-38
2024/01/28 01:38:56;;;;;;;225.68;9.02;;;;;;;19.66;51.38;101358.63;7294460;19;129242;-39
2024/01/28 01:41:23;;;;;;;157.50;6.25;;;;;;;19.64;51.90;101357.84;7290541;19;132985;-39
2024/01/28 01:43:48;;;;;;;;;;;;;;;19.50;52.08;101342.97;7292856;19;131112;-39
2024/01/28 01:46:13;;;;;;;208.02;8.30;;;;;;;19.59;52.01;101368.53;7292445;19;129251;-37
2024/01/28 01:48:39;;;;;;;214.25;8.25;;;;;;;19.60;52.19;101369.41;7294128;19;131191;-38
2024/01/28 01:51:06;;;;;;;200.02;7.80;;;;;;;19.59;52.25;101367.69;7293021;19;130176;-36
2024/01/28 01:53:32;;;;;;;198.70;8.02;;;;;;;19.68;51.21;101361.97;7293373;19;131657;-39
2024/01/28 01:55:58;;;;;;;166.70;6.63;;;;;;;19.78;50.42;101364.00;7292762;19;129434;-38
2024/01/28 01:58:24;;;;;;;217.85;8.63;;;;;;;19.76;49.71;101334.53;7293431;19;130340;-37
2024/01/28 02:00:49;;;;;;;188.73;7.57;;;;;;;20.01;49.59;101360.97;7293836;19;130073;-38
2024/01/28 02:03:15;;;;;;;153.30;6.25;;;;;;;20.07;49.21;101364.97;7293977;19;132158;-37
2024/01/28 02:05:40;;;;;;;157.73;6.22;;;;;;;20.03;50.73;101363.47;7292392;19;129165;-39
2024/01/28 02:08:06;;;;;;;247.45;9.30;;;;;;;19.90;50.56;101360.69;7293604;19;129184;-38
2024/01/28 02:10:32;;;;;;;209.13;8.93;;;;;;;19.85;50.86;101364.50;7292866;19;130414;-38
2024/01/28 02:12:57;;;;;;;197.10;7.70;;;;;;;19.79;51.81;101359.63;7293631;19;130240;-40
2024/01/28 02:15:22;;;;;;;155.07;6.28;;;;;;;19.73;52.12;101357.34;7291684;19;129694;-38
2024/01/28 02:17:48;;;;;;;234.63;9.07;;;;;;;19.73;50.95;101362.56;7291941;19;131110;-38
2024/01/28 02:20:13;;;;;;;248.43;10.27;;;;;;;19.77;50.88;101362.31;7293920;19;130920;-38
2024/01/28 02:22:39;;;;;;;241.23;9.93;;;;;;;20.43;48.36;101360.28;7289799;19;130272;-35
2024/01/28 02:25:05;;;;;;;221.77;8.70;;;;;;;20.91;47.63;101359.97;7291800;19;129842;-38
2024/01/28 02:27:30;;;;;;;260.50;10.65;;;;;;;21.15;46.97;101358.53;7292946;19;130519;-37
2024/01/28 02:29:56;;;;;;;202.35;8.18;;;;;;;21.16;47.05;101349.75;7292455;19;132619;-36
2024/01/28 02:32:21;;;;;;;239.65;9.82;;;;;;;21.31;46.92;101354.03;7292750;19;132009;-38
2024/01/28 02:34:47;;;;;;;162.38;6.55;;;;;;;21.27;46.79;101352.53;7292584;19;130022;-38
2024/01/28 02:37:12;;;;;;;194.05;7.65;;;;;;;21.13;47.42;101342.09;7291730;19;129552;-37
2024/01/28 02:39:38;;;;;;;209.23;8.65;;;;;;;21.07;47.71;101350.34;7290116;19;131307;-37
2024/01/28 02:42:04;;;;;;;194.50;8.03;;;;;;;21.01;47.62;101340.22;7289817;19;130592;-38
2024/01/28 02:44:30;;;;;;;287.73;11.80;;;;;;;20.94;48.19;101344.09;7292550;19;129172;-41
2024/01/28 02:47:01;;;;;;;159.18;6.20;;;;;;;20.81;48.07;101348.41;7292812;19;131349;-38
2024/01/28 02:49:26;;;;;;;157.30;6.43;;;;;;;20.77;48.95;101346.91;7291009;19;130968;-37
2024/01/28 02:51:51;;;;;;;233.55;9.65;;;;;;;20.66;48.60;101349.31;7287735;19;129528;-39
2024/01/28 02:54:17;;;;;;;220.20;8.82;;;;;;;20.31;49.29;101354.00;7290757;19;131318;-38
2024/01/28 02:56:42;;;;;;;249.30;10.10;;;;;;;20.13;50.27;101354.19;7291788;19;130012;-38
2024/01/28 02:59:08;;;;;;;156.77;6.18;;;;;;;19.99;50.47;101359.34;7292472;19;130144;-35
2024/01/28 03:01:33;;;;;;;184.70;7.78;;;;;;;19.90;50.45;101357.25;7289028;19;133066;-38
2024/01/28 03:03:58;;;;;;;227.40;9.02;;;;;;;19.84;50.72;101358.44;7288490;19;131608;-36
2024/01/28 03:06:24;;;;;;;202.40;7.95;;;;;;;19.73;51.46;101339.09;7293149;19;132029;-38
2024/01/28 03:08:49;;;;;;;168.32;7.13;;;;;;;19.78;51.91;101352.72;7292582;19;131451;-36
2024/01/28 03:11:15;;;;;;;192.00;7.82;;;;;;;19.79;51.94;101357.00;7290197;19;130352;-38
2024/01/28 03:13:40;;;;;;;220.88;8.40;;;;;;;19.77;51.41;101367.53;7290945;19;130567;-38
2024/01/28 03:16:06;;;;;;;225.00;9.15;;;;;;;19.86;50.04;101361.81;7291083;19;132208;-39
2024/01/28 03:18:31;;;;;;;194.60;7.80;;;;;;;19.97;50.54;101369.03;7289241;19;130316;-38
2024/01/28 03:20:57;;;;;;;210.43;8.10;;;;;;;19.88;50.04;101340.84;7287092;19;132087;-38
2024/01/28 03:23:22;;;;;;;218.10;8.40;;;;;;;19.98;50.99;101365.50;7286731;19;129223;-38
2024/01/28 03:25:50;;;;;;;192.30;7.57;;;;;;;19.97;51.00;101363.81;7288870;19;129880;-38
2024/01/28 03:28:15;;;;;;;192.05;7.70;;;;;;;19.96;50.47;101362.13;7287911;19;130146;-38
2024/01/28 03:30:41;;;;;;;217.43;8.80;;;;;;;19.92;50.53;101356.25;7295488;19;130912;-37
2024/01/28 03:33:06;;;;;;;258.08;10.20;;;;;;;19.89;51.15;101352.97;7297206;19;130986;-37
2024/01/28 03:35:31;;;;;;;187.63;7.45;;;;;;;19.85;50.85;101348.84;7297970;19;130306;-40
2024/01/28 03:37:57;;;;;;;114.72;4.65;;;;;;;19.83;51.39;101348.09;7296221;19;130675;-37
2024/01/28 03:40:22;;;;;;;258.77;9.73;;;;;;;19.81;51.21;101352.53;7292422;19;130339;-37
2024/01/28 03:42:48;;;;;;;287.90;11.43;;;;;;;19.79;51.32;101349.19;7294033;19;129446;-35
2024/01/28 03:45:13;;;;;;;225.18;9.13;;;;;;;19.72;51.25;101340.03;7296489;19;132121;-38
2024/01/28 03:47:38;;;;;;;200.82;8.20;;;;;;;19.61;52.09;101324.09;7295992;19;130205;-39
2024/01/28 03:50:04;;;;;;;200.43;7.82;;;;;;;19.79;51.46;101352.63;7295021;19;130276;-37
2024/01/28 03:52:30;;;;;;;157.88;6.38;;;;;;;19.87;50.92;101346.97;7296803;19;129437;-37
2024/01/28 03:54:55;;;;;;;135.55;5.55;;;;;;;19.98;50.40;101336.78;7294747;19;129232;-37
2024/01/28 03:57:20;;;;;;;238.65;9.80;;;;;;;20.02;50.42;101340.88;7293953;19;130242;-38
2024/01/28 03:59:46;;;;;;;300.67;12.52;;;;;;;20.00;50.79;101348.00;7291434;19;129891;-38
2024/01/28 04:02:14;;;;;;;249.00;10.10;;;;;;;19.91;50.77;101332.84;7293543;19;129646;-39
2024/01/28 04:04:40;;;;;;;188.20;7.43;;;;;;;19.86;50.81;101345.31;7296117;19;131004;-38
2024/01/28 04:07:05;;;;;;;189.23;7.55;;;;;;;19.63;51.73;101314.44;7294891;19;130647;-38
2024/01/28 04:09:30;;;;;;;242.85;9.68;;;;;;;19.72;50.94;101340.03;7294803;19;130424;-39
2024/01/28 04:11:56;;;;;;;157.32;6.15;;;;;;;19.77;51.11;101351.03;7293550;19;130445;-37
2024/01/28 04:14:21;;;;;;;233.07;9.48;;;;;;;19.72;51.44;101348.69;7292335;19;129230;-37
2024/01/28 04:16:47;;;;;;;146.70;5.97;;;;;;;19.83;50.18;101348.09;7295664;19;130284;-39
2024/01/28 04:19:12;;;;;;;279.02;11.00;;;;;;;20.44;48.86;101338.47;7294237;19;130328;-38
2024/01/28 04:21:37;;;;;;;199.07;8.35;;;;;;;20.44;48.81;101307.13;7291195;19;129466;-39
2024/01/28 04:24:03;;;;;;;149.82;6.10;;;;;;;20.66;48.77;101333.63;7292346;19;131545;-38
2024/01/28 04:26:28;;;;;;;202.57;8.35;;;;;;;20.72;48.25;101338.50;7293255;19;130693;-38
2024/01/28 04:28:55;;;;;;;130.10;5.18;;;;;;;20.77;48.35;101339.06;7294829;19;129859;-37
2024/01/28 04:31:20;;;;;;;242.57;9.77;;;;;;;20.74;48.38;101332.25;7292023;19;129077;-39
2024/01/28 04:33:46;;;;;;;207.75;8.65;;;;;;;20.54;49.17;101305.63;7295438;19;131978;-38
2024/01/28 04:36:11;;;;;;;200.65;7.95;;;;;;;20.61;48.90;101325.22;7295054;19;130120;-36
2024/01/28 04:38:36;;;;;;;181.60;7.07;;;;;;;20.52;49.39;101331.84;7293490;19;130420;-37
2024/01/28 04:41:02;;;;;;;203.80;8.18;;;;;;;20.54;49.04;101329.97;7291437;19;129322;-39
2024/01/28 04:43:28;;;;;;;206.57;8.65;;;;;;;20.54;49.16;101322.13;7291124;19;130281;-37
2024/01/28 04:45:53;;;;;;;229.23;9.25;;;;;;;20.72;48.71;101317.59;7294019;19;130736;-38
2024/01/28 04:48:20;;;;;;;201.55;8.23;;;;;;;20.41;48.63;101328.19;7294128;19;132217;-38
2024/01/28 04:50:45;;;;;;;216.77;8.98;;;;;;;20.31;49.35;101319.22;7291722;19;132406;-38
2024/01/28 04:53:11;;;;;;;172.05;6.75;;;;;;;20.33;48.73;101314.72;7286297;19;129957;-37
2024/01/28 04:55:36;;;;;;;266.45;10.68;;;;;;;20.38;48.85;101310.06;7293445;19;134442;-38
2024/01/28 04:58:02;;;;;;;198.38;8.18;;;;;;;20.42;48.33;101306.34;7291937;19;130557;-39
2024/01/28 05:00:27;;;;;;;185.38;7.40;;;;;;;20.45;48.24;101306.16;7292304;19;131640;-36
2024/01/28 05:02:55;;;;;;;193.93;7.80;;;;;;;20.49;48.34;101311.13;7291791;19;131024;-37
2024/01/28 05:05:21;;;;;;;215.43;8.68;;;;;;;20.63;47.89;101311.16;7293809;19;131837;-39
2024/01/28 05:07:47;;;;;;;331.88;13.27;;;;;;;21.24;47.03;101313.50;7287905;19;131451;-39
2024/01/28 05:10:12;;;;;;;259.67;10.48;;;;;;;21.41;46.65;101312.44;7287709;19;129031;-37
2024/01/28 05:12:38;;;;;;;255.30;10.10;;;;;;;21.42;46.89;101309.72;7292753;19;132130;-37
2024/01/28 05:15:04;;;;;;;252.98;10.48;;;;;;;21.37;46.75;101311.78;7289315;19;130679;-37
2024/01/28 05:17:29;;;;;;;176.82;7.28;;;;;;;21.20;47.33;101313.78;7287933;19;131713;-38
2024/01/28 05:19:55;;;;;;;227.35;8.70;;;;;;;21.18;47.73;101313.88;7285161;19;129467;-36
2024/01/28 05:22:22;;;;;;;298.83;12.43;;;;;;;21.04;48.13;101319.13;7289292;19;129571;-37
2024/01/28 05:24:49;;;;;;;320.58;13.25;;;;;;;20.77;48.07;101288.56;7289788;19;130354;-39
2024/01/28 05:27:15;;;;;;;137.80;5.55;;;;;;;20.84;48.39;101319.44;7290762;19;133498;-38
2024/01/28 05:29:41;;;;;;;243.20;10.00;;;;;;;20.71;48.67;101310.69;7293552;19;130040;-39
2024/01/28 05:32:06;;;;;;;258.63;10.32;;;;;;;20.60;49.34;101313.94;7288205;19;132422;-35
2024/01/28 05:34:32;;;;;;;191.55;7.78;;;;;;;20.37;49.61;101279.66;7290442;19;129850;-37
2024/01/28 05:36:57;;;;;;;158.98;6.95;;;;;;;20.41;49.97;101313.34;7288082;19;130157;-37
2024/01/28 05:39:22;;;;;;;164.93;6.35;;;;;;;20.24;49.50;101315.28;7288934;19;129635;-38
2024/01/28 05:41:47;;;;;;;222.38;9.15;;;;;;;20.01;50.43;101292.22;7291308;19;130133;-37
2024/01/28 05:44:13;;;;;;;229.02;9.27;;;;;;;20.03;51.02;101304.25;7283439;19;131463;-39
2024/01/28 05:46:38;;;;;;;234.75;9.35;;;;;;;20.02;50.37;101309.56;7291087;19;129652;-39
2024/01/28 05:49:03;;;;;;;198.98;7.93;;;;;;;19.98;50.54;101313.28;7292741;19;131597;-37
2024/01/28 05:51:32;;;;;;;201.18;8.18;;;;;;;19.99;50.34;101317.56;7291321;19;129301;-37
2024/01/28 05:53:58;;;;;;;162.65;6.50;;;;;;;19.99;50.60;101318.44;7290868;19;130224;-39
2024/01/28 05:56:23;;;;;;;190.75;7.85;;;;;;;20.01;50.26;101315.72;7293246;19;133008;-35
2024/01/28 05:58:49;;;;;;;225.13;9.15;;;;;;;20.02;50.97;101309.56;7290688;19;131093;-36
2024/01/28 06:01:15;;;;;;;213.85;9.05;;;;;;;20.00;50.61;101311.44;7290533;19;129212;-39
2024/01/28 06:03:41;;;;;;;228.63;9.40;;;;;;;20.06;51.02;101317.16;7289524;19;130754;-37
2024/01/28 06:06:07;;;;;;;212.65;8.45;;;;;;;20.05;50.54;101319.81;7292144;19;130375;-39
2024/01/28 06:08:32;;;;;;;214.23;8.77;;;;;;;20.02;50.07;101320.84;7291884;19;129660;-36
2024/01/28 06:10:58;;;;;;;174.95;7.18;;;;;;;19.84;50.34;101294.94;7291052;19;129885;-39
2024/01/28 06:13:23;;;;;;;214.65;8.93;;;;;;;19.92;50.68;101329.28;7291868;19;131892;-39
2024/01/28 06:15:51;;;;;;;269.35;11.15;;;;;;;19.87;50.50;101337.38;7292207;19;132661;-37
2024/01/28 06:18:16;;;;;;;211.10;8.73;;;;;;;19.88;51.21;101346.06;7292080;19;129186;-38
2024/01/28 06:20:42;;;;;;;158.90;6.80;;;;;;;19.87;50.90;101346.97;7291026;19;130770;-38
2024/01/28 06:23:07;;;;;;;157.27;6.55;;;;;;;19.84;51.26;101341.94;7289540;19;130754;-38
2024/01/28 06:25:32;;;;;;;167.52;6.72;;;;;;;19.80;50.76;101341.25;7290217;19;130214;-39
2024/01/28 06:27:58;;;;;;;243.88;9.80;;;;;;;19.78;51.58;101342.28;7290616;19;129798;-38
2024/01/28 06:30:23;;;;;;;214.50;8.85;;;;;;;19.83;51.06;101348.09;7289188;19;129974;-39
2024/01/28 06:32:49;;;;;;;220.48;9.13;;;;;;;19.83;51.20;101345.47;7290093;19;130062;-38
2024/01/28 06:35:15;;;;;;;232.73;9.50;;;;;;;19.85;51.09;101349.66;7290593;19;131217;-38
2024/01/28 06:37:40;;;;;;;296.48;12.70;;;;;;;19.87;51.53;101352.19;7291825;19;132893;-36
2024/01/28 06:40:06;;;;;;;167.18;6.75;;;;;;;19.74;51.33;101341.59;7289405;19;131203;-37
2024/01/28 06:42:32;;;;;;;224.97;8.87;;;;;;;19.79;51.40;101349.19;7291467;19;131585;-39
2024/01/28 06:45:00;;;;;;;274.17;11.60;;;;;;;19.63;50.57;101323.13;7286555;19;130834;-37
2024/01/28 06:47:26;;;;;;;236.25;9.82;;;;;;;19.80;50.74;101343.03;7291308;19;132034;-38
2024/01/28 06:49:51;;;;;;;241.55;9.65;;;;;;;19.82;51.46;101343.78;7287709;19;130051;-39
2024/01/28 06:52:17;;;;;;;227.40;8.98;;;;;;;19.85;51.11;101346.25;7289234;19;130044;-37
2024/01/28 06:54:42;;;;;;;188.60;7.47;;;;;;;19.88;50.54;101349.53;7288334;19;130323;-39
2024/01/28 06:57:07;;;;;;;164.38;6.60;;;;;;;19.95;49.69;101350.03;7290892;19;130924;-38
2024/01/28 06:59:33;;;;;;;205.80;8.65;;;;;;;19.96;50.52;101339.50;7287934;19;130288;-37
2024/01/28 07:01:58;;;;;;;252.63;10.20;;;;;;;20.02;49.64;101340.88;7287647;19;132894;-37
2024/01/28 07:04:23;;;;;;;198.75;7.95;;;;;;;20.43;48.75;101344.59;7287901;19;130423;-39
2024/01/28 07:06:49;;;;;;;211.23;8.63;;;;;;;20.65;48.11;101342.41;7288952;19;133492;-38
2024/01/28 07:09:15;;;;;;;106.53;4.50;;;;;;;20.79;48.41;101339.84;7291735;19;130400;-38
2024/01/28 07:11:41;;;;;;;;;;;;;;;20.76;48.04;101350.44;7289780;19;131347;-38
2024/01/28 07:14:06;;;;;;;216.10;8.83;;;;;;;20.91;47.82;101343.47;7289060;19;131763;-38
2024/01/28 07:16:32;;;;;;;237.48;9.70;;;;;;;20.69;48.35;101343.94;7288256;19;129465;-39
2024/01/28 07:18:57;;;;;;;185.37;7.17;;;;;;;20.75;48.31;101333.09;7286802;19;133344;-39
2024/01/28 07:21:23;;;;;;;252.45;10.07;;;;;;;20.79;48.76;101333.75;7279110;19;131331;-37
2024/01/28 07:23:48;;;;;;;175.48;7.15;;;;;;;20.64;48.94;101338.94;7286481;19;131657;-37
2024/01/28 07:26:14;;;;;;;264.85;10.93;;;;;;;20.61;48.54;101333.91;7290281;19;132255;-38
2024/01/28 07:28:39;;;;;;;222.23;9.05;;;;;;;20.58;49.28;101330.63;7288082;19;132832;-38
2024/01/28 07:31:06;;;;;;;235.07;9.25;;;;;;;20.47;49.11;101344.34;7289244;19;131289;-38
2024/01/28 07:33:32;;;;;;;105.97;4.32;;;;;;;20.42;49.51;101340.31;7288970;19;130650;-38
2024/01/28 07:35:58;;;;;;;223.15;8.88;;;;;;;20.32;49.28;101340.03;7290035;19;132892;-38
2024/01/28 07:38:24;;;;;;;202.38;8.40;;;;;;;20.14;50.04;101337.59;7288688;19;129536;-36
2024/01/28 07:40:49;;;;;;;205.07;8.10;;;;;;;20.03;49.88;101343.41;7287064;19;131444;-38
2024/01/28 07:43:14;;;;;;;211.82;8.77;;;;;;;19.98;50.50;101329.78;7289538;19;130333;-39
2024/01/28 07:45:42;;;;;;;168.30;6.63;;;;;;;19.98;50.31;101335.00;7288016;19;129629;-37
2024/01/28 07:48:07;;;;;;;196.02;7.85;;;;;;;19.98;50.51;101335.00;7288249;19;129520;-37
2024/01/28 07:50:32;;;;;;;162.40;6.75;;;;;;;19.97;50.08;101332.47;7288250;19;130544;-37
2024/01/28 07:52:58;;;;;;;210.15;8.38;;;;;;;19.95;50.47;101329.97;7289583;19;130339;-40
2024/01/28 07:55:24;;;;;;;178.03;7.20;;;;;;;19.91;49.99;101332.84;7287041;19;128984;-39
2024/01/28 07:57:49;;;;;;;241.98;9.98;;;;;;;19.92;50.02;101329.28;7287582;19;131031;-35
2024/01/28 08:00:15;;;;;;;170.27;7.20;;;;;;;19.94;50.34;101335.25;7284316;19;131006;-37
2024/01/28 08:02:41;;;;;;;156.50;6.43;;;;;;;19.97;50.04;101329.88;7289478;19;132453;-38
2024/01/28 08:05:06;;;;;;;196.25;7.90;;;;;;;19.84;50.00;101305.41;7287967;19;131337;-38
2024/01/28 08:07:32;;;;;;;226.07;9.23;;;;;;;19.98;50.47;101328.97;7289430;19;129148;-37
2024/01/28 08:09:57;;;;;;;223.55;8.52;;;;;;;20.00;50.03;101330.53;7288323;19;132819;-38
2024/01/28 08:12:22;;;;;;;197.02;8.07;;;;;;;19.95;50.09;101319.50;7290425;19;132736;-37
2024/01/28 08:14:48;;;;;;;226.23;9.13;;;;;;;19.96;50.44;101331.66;7286343;19;129594;-37
2024/01/28 08:17:14;;;;;;;128.18;5.07;;;;;;;19.94;50.63;101332.66;7294439;19;131565;-37
2024/01/28 08:19:40;;;;;;;177.83;7.37;;;;;;;19.88;51.24;101335.63;7293946;19;130884;-38
2024/01/28 08:22:05;;;;;;;193.13;7.72;;;;;;;19.88;50.66;101338.22;7289976;19;130347;-37
2024/01/28 08:24:31;;;;;;;171.23;7.22;;;;;;;19.85;51.34;101333.19;7291364;19;132825;-39
2024/01/28 08:26:58;;;;;;;328.48;13.90;;;;;;;19.84;51.13;101334.94;7291235;19;129854;-38
2024/01/28 08:29:24;;;;;;;112.32;4.53;;;;;;;19.81;51.13;101335.13;7293070;19;130281;-38
2024/01/28 08:31:49;;;;;;;236.98;8.88;;;;;;;19.78;51.81;101327.47;7286247;19;131257;-37
2024/01/28 08:34:14;;;;;;;259.30;10.45;;;;;;;19.60;51.72;101301.56;7294461;19;132920;-39
2024/01/28 08:36:40;;;;;;;82.22;3.55;;;;;;;19.77;51.23;101319.72;7292095;19;129450;-38
2024/01/28 08:39:05;;;;;;;236.88;9.80;;;;;;;19.83;50.89;101322.00;7290821;19;130232;-38
2024/01/28 08:41:31;;;;;;;213.07;8.65;;;;;;;19.88;51.20;101326.03;7286832;19;133004;-36
2024/01/28 08:43:57;;;;;;;332.73;13.33;;;;;;;19.70;50.68;101287.06;7287703;19;129493;-39
2024/01/28 08:46:22;;;;;;;272.27;11.45;;;;;;;19.87;51.25;101315.66;7291878;19;131344;-38
2024/01/28 08:48:47;;;;;;;227.50;9.50;;;;;;;19.84;51.38;101310.63;7284533;19;131163;-38
2024/01/28 08:51:13;;;;;;;315.23;12.82;;;;;;;19.83;50.34;101315.00;7286757;19;130440;-39
2024/01/28 08:53:38;;;;;;;151.20;6.18;;;;;;;19.82;50.61;101318.53;7293879;19;129481;-38
2024/01/28 08:56:04;;;;;;;187.68;7.80;;;;;;;19.82;50.68;101320.28;7284356;19;129402;-38
2024/01/28 08:58:30;;;;;;;199.25;7.95;;;;;;;19.85;50.21;101322.75;7292733;19;132220;-37
2024/01/28 09:00:56;;;;;;;317.23;12.88;;;;;;;19.84;50.52;101315.84;7289611;19;131850;-37
2024/01/28 09:03:21;;;;;;;183.75;7.20;;;;;;;19.85;49.84;101330.59;7291170;19;128864;-35
2024/01/28 09:05:47;;;;;;;216.32;9.10;;;;;;;20.00;50.06;101322.72;7292603;19;130469;-37
2024/01/28 09:08:13;;;;;;;172.38;7.10;;;;;;;19.99;50.37;101325.41;7292688;19;132449;-38
2024/01/28 09:10:38;;;;;;;225.43;8.98;;;;;;;19.99;49.33;101296.69;7291020;19;130644;-35
2024/01/28 09:13:04;;;;;;;233.07;9.80;;;;;;;20.17;49.47;101324.38;7291822;19;131092;-38
2024/01/28 09:15:29;;;;;;;285.35;11.70;;;;;;;20.04;49.35;101292.06;7290066;19;131894;-38
2024/01/28 09:17:55;;;;;;;251.82;10.50;;;;;;;20.18;49.74;101326.09;7290618;19;132280;-39
2024/01/28 09:20:20;;;;;;;162.23;6.50;;;;;;;20.20;50.10;101326.81;7290093;19;130731;-36
2024/01/28 09:22:45;;;;;;;193.15;7.72;;;;;;;20.21;49.82;101323.28;7293861;19;129458;-38
2024/01/28 09:25:11;;;;;;;182.05;7.65;;;;;;;20.17;49.78;101327.84;7285658;19;130285;-39
2024/01/28 09:27:37;;;;;;;223.32;8.77;;;;;;;20.17;50.06;101325.22;7289783;19;130958;-36
2024/01/28 09:30:02;;;;;;;300.92;12.40;;;;;;;20.23;49.61;101329.28;7290011;19;130874;-37
2024/01/28 09:32:28;;;;;;;169.02;6.85;;;;;;;20.31;49.43;101337.50;7292661;19;131320;-39
2024/01/28 09:34:53;;;;;;;194.27;7.88;;;;;;;20.07;50.12;101325.81;7292386;19;129997;-36
2024/01/28 09:37:19;;;;;;;179.88;6.90;;;;;;;19.98;50.36;101336.78;7288378;19;130204;-38
2024/01/28 09:39:45;;;;;;;267.50;10.82;;;;;;;19.90;50.32;101326.75;7291606;19;130515;-38
2024/01/28 09:42:23;;;;;;;218.55;8.80;;;;;;;19.91;50.24;101330.22;7286621;19;131853;-37
2024/01/28 09:44:49;;;;;;;149.13;6.05;;;;;;;19.89;50.13;101335.53;7290376;19;131255;-36
2024/01/28 09:47:18;;;;;;;239.27;9.80;;;;;;;19.90;50.59;101325.94;7289108;19;130333;-38
2024/01/28 09:49:44;;;;;;;188.68;7.63;;;;;;;19.91;49.96;101322.41;7289988;19;130192;-35
2024/01/28 09:52:10;;;;;;;229.50;9.43;;;;;;;19.91;49.89;101317.19;7284979;19;129215;-36
2024/01/28 09:54:37;;;;;;;230.73;9.32;;;;;;;19.91;50.73;101322.41;7289651;19;133857;-39
2024/01/28 09:57:05;;;;;;;121.57;4.80;;;;;;;20.17;49.56;101327.84;7291799;19;130561;-39
2024/01/28 09:59:33;;;;;;;268.02;10.43;;;;;;;20.12;50.00;101331.59;7290430;19;130946;-42
2024/01/28 10:02:00;;;;;;;197.20;8.00;;;;;;;20.21;49.83;101336.34;7290791;19;130008;-37
2024/01/28 10:04:27;;;;;;;215.80;8.63;;;;;;;20.25;49.26;101332.59;7288194;19;130410;-38
2024/01/28 10:06:57;;;;;;;156.82;6.32;;;;;;;20.27;49.22;101320.31;7291869;19;130655;-39
2024/01/28 10:09:23;;;;;;;270.55;10.90;;;;;;;20.24;49.65;101307.44;7289973;19;130442;-36
2024/01/28 10:11:48;;;;;;;196.65;7.68;;;;;;;20.16;49.90;101304.44;7292561;19;130825;-35
2024/01/28 10:14:13;;;;;;;187.00;7.72;;;;;;;20.13;50.41;101301.97;7291217;19;129344;-38
2024/01/28 10:16:39;;;;;;;182.80;7.18;;;;;;;20.09;50.60;101295.22;7291230;19;130261;-37
2024/01/28 10:19:05;;;;;;;279.65;10.75;;;;;;;20.11;50.24;101296.84;7292029;19;131222;-38
2024/01/28 10:21:31;;;;;;;197.50;7.97;;;;;;;20.08;50.50;101293.56;7289726;19;131847;-37
2024/01/28 10:23:57;;;;;;;187.80;7.57;;;;;;;20.02;51.01;101293.91;7288763;19;129195;-37
2024/01/28 10:26:23;;;;;;;335.70;13.90;;;;;;;19.94;50.95;101294.34;7286858;19;130429;-38
2024/01/28 10:28:51;;;;;;;220.50;8.63;;;;;;;19.78;50.60;101269.22;7289670;19;131308;-38
2024/01/28 10:31:17;;;;;;;120.07;4.90;;;;;;;19.88;50.46;101291.25;7289855;19;129634;-35
2024/01/28 10:33:43;;;;;;;180.95;7.03;;;;;;;19.86;50.77;101280.06;7291702;19;130030;-39
2024/01/28 10:36:10;;;;;;;246.98;9.98;;;;;;;19.84;50.61;101281.91;7288440;19;130175;-35
2024/01/28 10:38:43;;;;;;;258.73;10.82;;;;;;;19.84;51.07;101285.38;7284889;19;131189;-38
2024/01/28 10:41:10;;;;;;;178.13;7.15;;;;;;;19.82;50.66;101282.00;7288881;19;131369;-39
2024/01/28 10:43:38;;;;;;;227.68;9.30;;;;;;;19.84;50.38;101289.72;7287876;19;129679;-38
2024/01/28 10:46:05;;;;;;;203.15;8.38;;;;;;;19.84;50.85;101284.50;7288749;19;130745;-36
2024/01/28 10:48:31;;;;;;;220.82;8.95;;;;;;;19.85;50.46;101286.22;7288379;19;130770;-39
2024/01/28 10:50:59;;;;;;;187.80;7.38;;;;;;;19.87;50.78;101282.56;7288711;19;129716;-37
2024/01/28 10:53:26;;;;;;;180.85;7.15;;;;;;;19.87;51.26;101292.16;7289542;19;130691;-38
2024/01/28 10:55:51;;;;;;;;;;;;;;;19.91;50.47;101285.84;7286191;19;130099;-35